Pagrindinis puslapis
METAR-TAF:

METAR-TAF

Oro uostai :

Atėnai, Graikija

platuma: 37-56N, ilguma: 023-56E, Aukštis: 94 m

Dabartinis oras

Ataskaita buvo paskelbta 43 minutes, ne 22:20 UTC
Vėjas 16 kt iš Šiaurės/Šiaurės Rytų
Temperatūra 19°C
Drėgmė 64%
Slėgis 1020 hPa
Matomumas 10 km arba daugiau
Išsisklaidę debesys ne aukštis 2000 ft
Išsisklaidę debesys ne aukštis 4000 ft

METAR: LGAV 202220Z 02016KT 9999 SCT020 SCT040 19/12 Q1020 NOSIG

Laikas: 02:03 (23:03 UTC)

Prognozė

Ataskaita buvo paskelbta 6 valandos ir 3 minutes, ne 17:00 UTC
Prognozė galioja nuo 20 metu 18 UTC su 21 metu 18 UTC
Vėjas 17 kt iš Šiaurės/Šiaurės Rytų su gūsio iki 27 kt
Matomumas 10 km arba daugiau
Mažai debesys ne aukštis 1500 ft
Išsisklaidę debesys ne aukštis 2000 ft
Su prošvaistėmis ne aukštis 7000 ft
Tapsmas
nuo 21 metu 04 UTC su 21 metu 06 UTC
Vėjas 22 kt iš Šiaurės/Šiaurės Rytų su gūsio iki 32 kt

TAF: LGAV 201700Z 2018/2118 03017G27KT 9999 FEW015 SCT020 BKN070 BECMG 2104/2106 03022G32KT

Orai ataskaitas ir orų prognozės (METAR, TAF).

turimą stotys yra geltonos ir raudonos taškus žemėlapyje.

Perkelti pele per norėdami pamatyti stoties vardą.

Tada spustelėkite, norėdami matyti oro stebėjimo ir prognozės.

Norėdami pakeisti žemėlapį: spustelėkite ant žalios mygtukų su juodo kryžiaus žemyn,; žalią mygtuką su brūkšneliu, jei norite nutolinti; arba žalių rodyklių gretimoms žemėlapius.


METAR-TAF: